sensor_id;sensor_type;location;lat;lon;timestamp;P1;durP1;ratioP1;P2;durP2;ratioP2
78484;SDS011;67773;50.806;8.776;2023-04-28T00:02:09;9.63;;;5.27;;
78484;SDS011;67773;50.806;8.776;2023-04-28T00:04:34;6.53;;;4.53;;
78484;SDS011;67773;50.806;8.776;2023-04-28T00:06:59;9.33;;;5.87;;
78484;SDS011;67773;50.806;8.776;2023-04-28T00:09:24;9.17;;;4.80;;
78484;SDS011;67773;50.806;8.776;2023-04-28T00:11:50;8.90;;;5.30;;
78484;SDS011;67773;50.806;8.776;2023-04-28T00:14:15;7.97;;;4.40;;
78484;SDS011;67773;50.806;8.776;2023-04-28T00:16:40;7.53;;;4.13;;
78484;SDS011;67773;50.806;8.776;2023-04-28T00:19:06;7.20;;;4.87;;
78484;SDS011;67773;50.806;8.776;2023-04-28T00:21:31;8.10;;;4.40;;
78484;SDS011;67773;50.806;8.776;2023-04-28T00:23:57;7.55;;;4.35;;
78484;SDS011;67773;50.806;8.776;2023-04-28T00:26:22;6.00;;;4.30;;
78484;SDS011;67773;50.806;8.776;2023-04-28T00:28:47;9.30;;;4.43;;
78484;SDS011;67773;50.806;8.776;2023-04-28T00:31:13;7.67;;;4.33;;
78484;SDS011;67773;50.806;8.776;2023-04-28T00:33:40;8.32;;;4.55;;
78484;SDS011;67773;50.806;8.776;2023-04-28T00:36:06;7.03;;;4.50;;
78484;SDS011;67773;50.806;8.776;2023-04-28T00:38:32;8.43;;;4.13;;
78484;SDS011;67773;50.806;8.776;2023-04-28T00:40:58;9.15;;;4.32;;
78484;SDS011;67773;50.806;8.776;2023-04-28T00:43:24;6.38;;;4.57;;
78484;SDS011;67773;50.806;8.776;2023-04-28T00:45:50;9.32;;;4.60;;
78484;SDS011;67773;50.806;8.776;2023-04-28T00:48:16;10.55;;;5.07;;
78484;SDS011;67773;50.806;8.776;2023-04-28T00:50:42;6.70;;;4.45;;
78484;SDS011;67773;50.806;8.776;2023-04-28T00:53:09;10.10;;;5.53;;
78484;SDS011;67773;50.806;8.776;2023-04-28T00:55:35;8.13;;;4.70;;
78484;SDS011;67773;50.806;8.776;2023-04-28T00:58:01;8.63;;;5.00;;
78484;SDS011;67773;50.806;8.776;2023-04-28T01:00:27;12.57;;;5.68;;
78484;SDS011;67773;50.806;8.776;2023-04-28T01:02:53;8.07;;;5.10;;
78484;SDS011;67773;50.806;8.776;2023-04-28T01:05:19;8.93;;;5.97;;
78484;SDS011;67773;50.806;8.776;2023-04-28T01:07:44;8.98;;;5.53;;
78484;SDS011;67773;50.806;8.776;2023-04-28T01:10:10;10.15;;;5.93;;
78484;SDS011;67773;50.806;8.776;2023-04-28T01:12:35;9.50;;;6.00;;
78484;SDS011;67773;50.806;8.776;2023-04-28T01:15:01;10.65;;;5.90;;
78484;SDS011;67773;50.806;8.776;2023-04-28T01:17:26;10.15;;;6.30;;
78484;SDS011;67773;50.806;8.776;2023-04-28T01:19:52;13.05;;;6.70;;
78484;SDS011;67773;50.806;8.776;2023-04-28T01:22:17;11.63;;;5.93;;
78484;SDS011;67773;50.806;8.776;2023-04-28T01:24:43;10.07;;;5.70;;
78484;SDS011;67773;50.806;8.776;2023-04-28T01:27:08;15.27;;;7.30;;
78484;SDS011;67773;50.806;8.776;2023-04-28T01:29:34;13.48;;;7.75;;
78484;SDS011;67773;50.806;8.776;2023-04-28T01:31:59;13.18;;;6.80;;
78484;SDS011;67773;50.806;8.776;2023-04-28T01:34:24;12.07;;;6.70;;
78484;SDS011;67773;50.806;8.776;2023-04-28T01:36:50;10.40;;;6.70;;
78484;SDS011;67773;50.806;8.776;2023-04-28T01:39:15;11.18;;;6.97;;
78484;SDS011;67773;50.806;8.776;2023-04-28T01:41:41;10.98;;;7.22;;
78484;SDS011;67773;50.806;8.776;2023-04-28T01:44:06;12.85;;;7.10;;
78484;SDS011;67773;50.806;8.776;2023-04-28T01:46:32;11.73;;;6.50;;
78484;SDS011;67773;50.806;8.776;2023-04-28T01:48:58;8.95;;;5.97;;
78484;SDS011;67773;50.806;8.776;2023-04-28T01:51:24;12.13;;;6.55;;
78484;SDS011;67773;50.806;8.776;2023-04-28T01:53:55;11.40;;;7.20;;
78484;SDS011;67773;50.806;8.776;2023-04-28T01:56:27;10.32;;;6.60;;
78484;SDS011;67773;50.806;8.776;2023-04-28T01:58:52;9.97;;;6.13;;
78484;SDS011;67773;50.806;8.776;2023-04-28T02:01:17;11.67;;;6.67;;
78484;SDS011;67773;50.806;8.776;2023-04-28T02:03:43;11.07;;;6.50;;
78484;SDS011;67773;50.806;8.776;2023-04-28T02:06:08;12.40;;;6.07;;
78484;SDS011;67773;50.806;8.776;2023-04-28T02:08:34;10.88;;;6.13;;
78484;SDS011;67773;50.806;8.776;2023-04-28T02:10:59;14.05;;;6.50;;
78484;SDS011;67773;50.806;8.776;2023-04-28T02:13:25;11.30;;;6.78;;
78484;SDS011;67773;50.806;8.776;2023-04-28T02:15:51;9.93;;;5.97;;
78484;SDS011;67773;50.806;8.776;2023-04-28T02:18:16;9.77;;;6.30;;
78484;SDS011;67773;50.806;8.776;2023-04-28T02:20:41;11.50;;;7.20;;
78484;SDS011;67773;50.806;8.776;2023-04-28T02:23:06;9.90;;;6.73;;
78484;SDS011;67773;50.806;8.776;2023-04-28T02:25:32;8.98;;;6.22;;
78484;SDS011;67773;50.806;8.776;2023-04-28T02:27:57;11.57;;;6.77;;
78484;SDS011;67773;50.806;8.776;2023-04-28T02:30:23;12.20;;;7.03;;
78484;SDS011;67773;50.806;8.776;2023-04-28T02:32:48;10.15;;;6.47;;
78484;SDS011;67773;50.806;8.776;2023-04-28T02:35:14;9.43;;;6.83;;
78484;SDS011;67773;50.806;8.776;2023-04-28T02:37:39;11.33;;;6.57;;
78484;SDS011;67773;50.806;8.776;2023-04-28T02:40:04;9.93;;;6.10;;
78484;SDS011;67773;50.806;8.776;2023-04-28T02:42:31;11.10;;;5.97;;
78484;SDS011;67773;50.806;8.776;2023-04-28T02:44:56;10.77;;;5.90;;
78484;SDS011;67773;50.806;8.776;2023-04-28T02:47:21;9.47;;;5.90;;
78484;SDS011;67773;50.806;8.776;2023-04-28T02:49:46;10.67;;;7.23;;
78484;SDS011;67773;50.806;8.776;2023-04-28T02:52:12;11.03;;;6.53;;
78484;SDS011;67773;50.806;8.776;2023-04-28T02:54:37;9.63;;;6.43;;
78484;SDS011;67773;50.806;8.776;2023-04-28T02:57:02;11.43;;;6.33;;
78484;SDS011;67773;50.806;8.776;2023-04-28T02:59:28;12.13;;;7.07;;
78484;SDS011;67773;50.806;8.776;2023-04-28T03:01:54;8.80;;;7.03;;
78484;SDS011;67773;50.806;8.776;2023-04-28T03:04:19;11.88;;;6.93;;
78484;SDS011;67773;50.806;8.776;2023-04-28T03:06:45;10.02;;;6.60;;
78484;SDS011;67773;50.806;8.776;2023-04-28T03:09:11;12.25;;;7.35;;
78484;SDS011;67773;50.806;8.776;2023-04-28T03:11:37;11.80;;;7.03;;
78484;SDS011;67773;50.806;8.776;2023-04-28T03:14:02;14.97;;;7.93;;
78484;SDS011;67773;50.806;8.776;2023-04-28T03:16:27;13.38;;;8.07;;
78484;SDS011;67773;50.806;8.776;2023-04-28T03:18:53;15.95;;;6.88;;
78484;SDS011;67773;50.806;8.776;2023-04-28T03:21:18;14.17;;;6.73;;
78484;SDS011;67773;50.806;8.776;2023-04-28T03:23:44;12.73;;;7.73;;
78484;SDS011;67773;50.806;8.776;2023-04-28T03:26:09;13.10;;;8.00;;
78484;SDS011;67773;50.806;8.776;2023-04-28T03:28:35;12.60;;;7.63;;
78484;SDS011;67773;50.806;8.776;2023-04-28T03:31:00;11.43;;;7.30;;
78484;SDS011;67773;50.806;8.776;2023-04-28T03:33:26;11.43;;;7.22;;
78484;SDS011;67773;50.806;8.776;2023-04-28T03:35:52;13.40;;;8.07;;
78484;SDS011;67773;50.806;8.776;2023-04-28T03:38:18;13.35;;;7.50;;
78484;SDS011;67773;50.806;8.776;2023-04-28T03:40:43;13.35;;;7.97;;
78484;SDS011;67773;50.806;8.776;2023-04-28T03:43:09;13.95;;;8.40;;
78484;SDS011;67773;50.806;8.776;2023-04-28T03:45:34;14.23;;;8.03;;
78484;SDS011;67773;50.806;8.776;2023-04-28T03:47:59;16.57;;;8.23;;
78484;SDS011;67773;50.806;8.776;2023-04-28T03:50:25;17.63;;;8.77;;
78484;SDS011;67773;50.806;8.776;2023-04-28T03:52:50;13.77;;;8.27;;
78484;SDS011;67773;50.806;8.776;2023-04-28T03:55:15;13.33;;;8.13;;
78484;SDS011;67773;50.806;8.776;2023-04-28T03:57:40;14.70;;;9.70;;
78484;SDS011;67773;50.806;8.776;2023-04-28T04:00:06;14.43;;;8.82;;
78484;SDS011;67773;50.806;8.776;2023-04-28T04:02:32;13.10;;;8.52;;
78484;SDS011;67773;50.806;8.776;2023-04-28T04:04:58;15.93;;;8.70;;
78484;SDS011;67773;50.806;8.776;2023-04-28T04:07:23;14.00;;;8.90;;
78484;SDS011;67773;50.806;8.776;2023-04-28T04:09:48;15.53;;;8.80;;
78484;SDS011;67773;50.806;8.776;2023-04-28T04:12:13;12.90;;;7.97;;
78484;SDS011;67773;50.806;8.776;2023-04-28T04:14:39;16.05;;;9.38;;
78484;SDS011;67773;50.806;8.776;2023-04-28T04:17:04;16.48;;;9.65;;
78484;SDS011;67773;50.806;8.776;2023-04-28T04:19:30;19.37;;;10.17;;
78484;SDS011;67773;50.806;8.776;2023-04-28T04:21:55;17.30;;;10.10;;
78484;SDS011;67773;50.806;8.776;2023-04-28T04:24:20;15.70;;;10.13;;
78484;SDS011;67773;50.806;8.776;2023-04-28T04:26:45;15.43;;;9.90;;
78484;SDS011;67773;50.806;8.776;2023-04-28T04:29:11;16.63;;;9.97;;
78484;SDS011;67773;50.806;8.776;2023-04-28T04:31:36;15.90;;;10.73;;
78484;SDS011;67773;50.806;8.776;2023-04-28T04:34:01;15.17;;;9.00;;
78484;SDS011;67773;50.806;8.776;2023-04-28T04:36:27;16.97;;;10.77;;
78484;SDS011;67773;50.806;8.776;2023-04-28T04:38:52;20.07;;;10.43;;
78484;SDS011;67773;50.806;8.776;2023-04-28T04:41:17;16.93;;;10.37;;
78484;SDS011;67773;50.806;8.776;2023-04-28T04:43:46;20.05;;;11.00;;
78484;SDS011;67773;50.806;8.776;2023-04-28T04:46:12;17.52;;;9.82;;
78484;SDS011;67773;50.806;8.776;2023-04-28T04:48:37;16.75;;;9.82;;
78484;SDS011;67773;50.806;8.776;2023-04-28T04:51:03;16.98;;;10.07;;
78484;SDS011;67773;50.806;8.776;2023-04-28T04:53:28;15.07;;;9.82;;
78484;SDS011;67773;50.806;8.776;2023-04-28T04:55:53;16.23;;;9.10;;
78484;SDS011;67773;50.806;8.776;2023-04-28T04:58:19;18.57;;;10.77;;
78484;SDS011;67773;50.806;8.776;2023-04-28T05:00:44;16.45;;;10.38;;
78484;SDS011;67773;50.806;8.776;2023-04-28T05:03:10;16.80;;;10.53;;
78484;SDS011;67773;50.806;8.776;2023-04-28T05:05:35;15.38;;;9.27;;
78484;SDS011;67773;50.806;8.776;2023-04-28T05:08:01;17.43;;;8.97;;
78484;SDS011;67773;50.806;8.776;2023-04-28T05:10:26;18.65;;;10.55;;
78484;SDS011;67773;50.806;8.776;2023-04-28T05:12:51;16.40;;;9.80;;
78484;SDS011;67773;50.806;8.776;2023-04-28T05:15:17;17.70;;;10.30;;
78484;SDS011;67773;50.806;8.776;2023-04-28T05:17:42;15.43;;;10.77;;
78484;SDS011;67773;50.806;8.776;2023-04-28T05:20:07;20.80;;;10.27;;
78484;SDS011;67773;50.806;8.776;2023-04-28T05:22:33;17.08;;;10.07;;
78484;SDS011;67773;50.806;8.776;2023-04-28T05:24:58;17.40;;;9.73;;
78484;SDS011;67773;50.806;8.776;2023-04-28T05:27:23;16.30;;;10.45;;
78484;SDS011;67773;50.806;8.776;2023-04-28T05:29:49;17.50;;;9.83;;
78484;SDS011;67773;50.806;8.776;2023-04-28T05:32:14;18.45;;;10.05;;
78484;SDS011;67773;50.806;8.776;2023-04-28T05:34:40;20.27;;;12.73;;
78484;SDS011;67773;50.806;8.776;2023-04-28T05:37:05;16.23;;;9.37;;
78484;SDS011;67773;50.806;8.776;2023-04-28T05:39:30;16.77;;;10.10;;
78484;SDS011;67773;50.806;8.776;2023-04-28T05:41:56;19.95;;;11.43;;
78484;SDS011;67773;50.806;8.776;2023-04-28T05:44:22;17.65;;;10.55;;
78484;SDS011;67773;50.806;8.776;2023-04-28T05:46:48;17.15;;;10.20;;
78484;SDS011;67773;50.806;8.776;2023-04-28T05:49:13;18.73;;;10.93;;
78484;SDS011;67773;50.806;8.776;2023-04-28T05:51:38;14.10;;;10.37;;
78484;SDS011;67773;50.806;8.776;2023-04-28T05:54:04;17.77;;;10.00;;
78484;SDS011;67773;50.806;8.776;2023-04-28T05:56:29;18.20;;;10.63;;
78484;SDS011;67773;50.806;8.776;2023-04-28T05:58:54;17.63;;;11.55;;
78484;SDS011;67773;50.806;8.776;2023-04-28T06:01:21;17.75;;;9.63;;
78484;SDS011;67773;50.806;8.776;2023-04-28T06:03:46;19.15;;;11.02;;
78484;SDS011;67773;50.806;8.776;2023-04-28T06:06:12;15.38;;;9.77;;
78484;SDS011;67773;50.806;8.776;2023-04-28T06:08:37;16.65;;;10.25;;
78484;SDS011;67773;50.806;8.776;2023-04-28T06:11:03;16.20;;;10.15;;
78484;SDS011;67773;50.806;8.776;2023-04-28T06:13:29;16.15;;;9.80;;
78484;SDS011;67773;50.806;8.776;2023-04-28T06:15:54;17.97;;;10.10;;
78484;SDS011;67773;50.806;8.776;2023-04-28T06:18:19;17.65;;;10.50;;
78484;SDS011;67773;50.806;8.776;2023-04-28T06:20:45;17.27;;;10.57;;
78484;SDS011;67773;50.806;8.776;2023-04-28T06:23:10;14.88;;;9.77;;
78484;SDS011;67773;50.806;8.776;2023-04-28T06:25:36;15.40;;;9.77;;
78484;SDS011;67773;50.806;8.776;2023-04-28T06:28:02;19.00;;;11.25;;
78484;SDS011;67773;50.806;8.776;2023-04-28T06:30:27;21.40;;;10.65;;
78484;SDS011;67773;50.806;8.776;2023-04-28T06:32:52;15.87;;;10.07;;
78484;SDS011;67773;50.806;8.776;2023-04-28T06:35:18;14.77;;;10.43;;
78484;SDS011;67773;50.806;8.776;2023-04-28T06:37:44;18.73;;;11.18;;
78484;SDS011;67773;50.806;8.776;2023-04-28T06:40:09;15.32;;;9.82;;
78484;SDS011;67773;50.806;8.776;2023-04-28T06:42:35;21.73;;;10.70;;
78484;SDS011;67773;50.806;8.776;2023-04-28T06:45:01;18.97;;;11.30;;
78484;SDS011;67773;50.806;8.776;2023-04-28T06:47:26;17.63;;;10.80;;
78484;SDS011;67773;50.806;8.776;2023-04-28T06:49:52;19.05;;;11.35;;
78484;SDS011;67773;50.806;8.776;2023-04-28T06:52:17;16.10;;;10.98;;
78484;SDS011;67773;50.806;8.776;2023-04-28T06:54:45;16.13;;;9.93;;
78484;SDS011;67773;50.806;8.776;2023-04-28T06:57:10;18.40;;;11.30;;
78484;SDS011;67773;50.806;8.776;2023-04-28T06:59:35;16.73;;;10.57;;
78484;SDS011;67773;50.806;8.776;2023-04-28T07:02:02;19.20;;;12.15;;
78484;SDS011;67773;50.806;8.776;2023-04-28T07:04:27;20.65;;;12.50;;
78484;SDS011;67773;50.806;8.776;2023-04-28T07:06:52;18.77;;;10.90;;
78484;SDS011;67773;50.806;8.776;2023-04-28T07:09:18;20.30;;;10.05;;
78484;SDS011;67773;50.806;8.776;2023-04-28T07:11:43;17.60;;;9.73;;
78484;SDS011;67773;50.806;8.776;2023-04-28T07:14:09;17.20;;;10.82;;
78484;SDS011;67773;50.806;8.776;2023-04-28T07:16:34;16.07;;;10.53;;
78484;SDS011;67773;50.806;8.776;2023-04-28T07:19:00;18.33;;;10.68;;
78484;SDS011;67773;50.806;8.776;2023-04-28T07:21:25;16.60;;;9.97;;
78484;SDS011;67773;50.806;8.776;2023-04-28T07:23:50;20.10;;;11.10;;
78484;SDS011;67773;50.806;8.776;2023-04-28T07:26:15;17.87;;;11.03;;
78484;SDS011;67773;50.806;8.776;2023-04-28T07:28:42;15.80;;;9.63;;
78484;SDS011;67773;50.806;8.776;2023-04-28T07:31:08;18.45;;;10.65;;
78484;SDS011;67773;50.806;8.776;2023-04-28T07:33:33;16.03;;;10.77;;
78484;SDS011;67773;50.806;8.776;2023-04-28T07:35:58;16.00;;;10.50;;
78484;SDS011;67773;50.806;8.776;2023-04-28T07:38:24;16.58;;;10.20;;
78484;SDS011;67773;50.806;8.776;2023-04-28T07:40:49;14.40;;;9.80;;
78484;SDS011;67773;50.806;8.776;2023-04-28T07:43:14;17.40;;;10.87;;
78484;SDS011;67773;50.806;8.776;2023-04-28T07:45:40;17.42;;;10.23;;
78484;SDS011;67773;50.806;8.776;2023-04-28T07:48:06;18.08;;;10.70;;
78484;SDS011;67773;50.806;8.776;2023-04-28T07:50:32;17.98;;;10.65;;
78484;SDS011;67773;50.806;8.776;2023-04-28T07:52:57;14.82;;;9.95;;
78484;SDS011;67773;50.806;8.776;2023-04-28T07:55:23;14.25;;;9.35;;
78484;SDS011;67773;50.806;8.776;2023-04-28T07:57:48;16.42;;;9.80;;
78484;SDS011;67773;50.806;8.776;2023-04-28T08:00:14;15.63;;;10.10;;
78484;SDS011;67773;50.806;8.776;2023-04-28T08:02:39;13.30;;;9.43;;
78484;SDS011;67773;50.806;8.776;2023-04-28T08:05:05;15.65;;;10.35;;
78484;SDS011;67773;50.806;8.776;2023-04-28T08:07:32;17.95;;;10.48;;
78484;SDS011;67773;50.806;8.776;2023-04-28T08:09:58;20.27;;;10.75;;
78484;SDS011;67773;50.806;8.776;2023-04-28T08:12:23;14.43;;;10.10;;
78484;SDS011;67773;50.806;8.776;2023-04-28T08:14:48;13.60;;;9.37;;
78484;SDS011;67773;50.806;8.776;2023-04-28T08:17:14;12.93;;;8.57;;
78484;SDS011;67773;50.806;8.776;2023-04-28T08:19:39;17.13;;;10.10;;
78484;SDS011;67773;50.806;8.776;2023-04-28T08:22:04;14.83;;;8.83;;
78484;SDS011;67773;50.806;8.776;2023-04-28T08:24:31;15.82;;;10.57;;
78484;SDS011;67773;50.806;8.776;2023-04-28T08:26:59;14.25;;;9.68;;
78484;SDS011;67773;50.806;8.776;2023-04-28T08:29:27;18.00;;;9.75;;
78484;SDS011;67773;50.806;8.776;2023-04-28T08:31:53;14.15;;;9.20;;
78484;SDS011;67773;50.806;8.776;2023-04-28T08:34:18;14.77;;;9.17;;
78484;SDS011;67773;50.806;8.776;2023-04-28T08:36:45;17.08;;;9.63;;
78484;SDS011;67773;50.806;8.776;2023-04-28T08:39:10;16.30;;;9.65;;
78484;SDS011;67773;50.806;8.776;2023-04-28T08:41:36;13.75;;;9.32;;
78484;SDS011;67773;50.806;8.776;2023-04-28T08:44:05;16.25;;;10.32;;
78484;SDS011;67773;50.806;8.776;2023-04-28T08:46:37;15.75;;;11.07;;
78484;SDS011;67773;50.806;8.776;2023-04-28T08:49:04;17.67;;;10.48;;
78484;SDS011;67773;50.806;8.776;2023-04-28T08:51:33;20.10;;;11.52;;
78484;SDS011;67773;50.806;8.776;2023-04-28T08:54:02;14.90;;;10.50;;
78484;SDS011;67773;50.806;8.776;2023-04-28T08:56:30;18.30;;;11.27;;
78484;SDS011;67773;50.806;8.776;2023-04-28T08:58:59;16.55;;;11.23;;
78484;SDS011;67773;50.806;8.776;2023-04-28T09:01:26;16.88;;;11.02;;
78484;SDS011;67773;50.806;8.776;2023-04-28T09:03:52;16.90;;;10.30;;
78484;SDS011;67773;50.806;8.776;2023-04-28T09:06:18;14.85;;;10.18;;
78484;SDS011;67773;50.806;8.776;2023-04-28T09:08:43;15.03;;;11.27;;
78484;SDS011;67773;50.806;8.776;2023-04-28T09:11:09;16.73;;;11.97;;
78484;SDS011;67773;50.806;8.776;2023-04-28T09:13:37;17.70;;;11.15;;
78484;SDS011;67773;50.806;8.776;2023-04-28T09:16:04;17.52;;;11.43;;
78484;SDS011;67773;50.806;8.776;2023-04-28T09:18:29;14.65;;;10.45;;
78484;SDS011;67773;50.806;8.776;2023-04-28T09:21:01;14.93;;;10.95;;
78484;SDS011;67773;50.806;8.776;2023-04-28T09:23:31;20.35;;;10.65;;
78484;SDS011;67773;50.806;8.776;2023-04-28T09:26:04;15.35;;;9.90;;
78484;SDS011;67773;50.806;8.776;2023-04-28T09:28:35;13.20;;;9.60;;
78484;SDS011;67773;50.806;8.776;2023-04-28T09:31:00;15.50;;;10.25;;
78484;SDS011;67773;50.806;8.776;2023-04-28T09:33:26;16.45;;;10.20;;
78484;SDS011;67773;50.806;8.776;2023-04-28T09:35:52;17.52;;;9.77;;
78484;SDS011;67773;50.806;8.776;2023-04-28T09:38:19;14.60;;;10.13;;
78484;SDS011;67773;50.806;8.776;2023-04-28T09:40:52;12.93;;;9.70;;
78484;SDS011;67773;50.806;8.776;2023-04-28T09:43:24;16.83;;;10.63;;
78484;SDS011;67773;50.806;8.776;2023-04-28T09:45:50;16.23;;;10.70;;
78484;SDS011;67773;50.806;8.776;2023-04-28T09:48:16;18.33;;;10.82;;
78484;SDS011;67773;50.806;8.776;2023-04-28T09:50:42;16.33;;;10.68;;
78484;SDS011;67773;50.806;8.776;2023-04-28T09:53:08;17.60;;;10.68;;
78484;SDS011;67773;50.806;8.776;2023-04-28T09:55:36;15.80;;;11.18;;
78484;SDS011;67773;50.806;8.776;2023-04-28T09:58:07;15.48;;;10.82;;
78484;SDS011;67773;50.806;8.776;2023-04-28T10:00:33;13.63;;;9.52;;
78484;SDS011;67773;50.806;8.776;2023-04-28T10:03:00;13.30;;;9.35;;
78484;SDS011;67773;50.806;8.776;2023-04-28T10:05:25;13.93;;;9.27;;
78484;SDS011;67773;50.806;8.776;2023-04-28T10:07:51;12.10;;;9.13;;
78484;SDS011;67773;50.806;8.776;2023-04-28T10:10:19;12.88;;;8.35;;
78484;SDS011;67773;50.806;8.776;2023-04-28T10:12:44;16.20;;;10.25;;
78484;SDS011;67773;50.806;8.776;2023-04-28T10:15:10;14.65;;;10.43;;
78484;SDS011;67773;50.806;8.776;2023-04-28T10:17:37;11.77;;;8.57;;
78484;SDS011;67773;50.806;8.776;2023-04-28T10:20:03;13.20;;;8.80;;
78484;SDS011;67773;50.806;8.776;2023-04-28T10:25:30;13.88;;;9.93;;
78484;SDS011;67773;50.806;8.776;2023-04-28T10:27:59;15.98;;;9.35;;
78484;SDS011;67773;50.806;8.776;2023-04-28T10:30:28;16.05;;;9.30;;
78484;SDS011;67773;50.806;8.776;2023-04-28T10:38:04;14.32;;;10.25;;
78484;SDS011;67773;50.806;8.776;2023-04-28T10:40:38;17.23;;;9.88;;
78484;SDS011;67773;50.806;8.776;2023-04-28T10:43:31;15.32;;;9.02;;
78484;SDS011;67773;50.806;8.776;2023-04-28T10:45:58;18.88;;;10.77;;
78484;SDS011;67773;50.806;8.776;2023-04-28T10:56:08;14.35;;;9.55;;
78484;SDS011;67773;50.806;8.776;2023-04-28T10:58:39;16.67;;;9.88;;
78484;SDS011;67773;50.806;8.776;2023-04-28T11:01:29;15.18;;;9.35;;
78484;SDS011;67773;50.806;8.776;2023-04-28T11:04:00;18.23;;;10.23;;
78484;SDS011;67773;50.806;8.776;2023-04-28T11:06:42;14.88;;;9.82;;
78484;SDS011;67773;50.806;8.776;2023-04-28T11:11:38;14.95;;;10.40;;
78484;SDS011;67773;50.806;8.776;2023-04-28T11:19:23;15.35;;;10.18;;
78484;SDS011;67773;50.806;8.776;2023-04-28T11:21:50;15.82;;;10.27;;
78484;SDS011;67773;50.806;8.776;2023-04-28T11:24:16;13.90;;;9.82;;
78484;SDS011;67773;50.806;8.776;2023-04-28T11:26:45;19.52;;;10.55;;
78484;SDS011;67773;50.806;8.776;2023-04-28T11:29:11;16.48;;;10.45;;
78484;SDS011;67773;50.806;8.776;2023-04-28T11:31:38;16.25;;;10.30;;
78484;SDS011;67773;50.806;8.776;2023-04-28T11:34:04;16.07;;;9.90;;
78484;SDS011;67773;50.806;8.776;2023-04-28T11:36:37;14.73;;;9.30;;
78484;SDS011;67773;50.806;8.776;2023-04-28T11:39:04;17.83;;;10.10;;
78484;SDS011;67773;50.806;8.776;2023-04-28T11:41:31;16.83;;;10.13;;
78484;SDS011;67773;50.806;8.776;2023-04-28T11:43:58;15.75;;;9.52;;
78484;SDS011;67773;50.806;8.776;2023-04-28T11:46:24;15.20;;;10.02;;
78484;SDS011;67773;50.806;8.776;2023-04-28T11:48:59;19.05;;;11.18;;
78484;SDS011;67773;50.806;8.776;2023-04-28T11:51:29;17.77;;;10.05;;
78484;SDS011;67773;50.806;8.776;2023-04-28T11:53:56;17.25;;;10.98;;
78484;SDS011;67773;50.806;8.776;2023-04-28T11:56:22;16.40;;;11.20;;
78484;SDS011;67773;50.806;8.776;2023-04-28T11:58:58;17.07;;;10.93;;
78484;SDS011;67773;50.806;8.776;2023-04-28T12:01:24;14.98;;;10.40;;
78484;SDS011;67773;50.806;8.776;2023-04-28T12:03:49;16.70;;;11.50;;
78484;SDS011;67773;50.806;8.776;2023-04-28T12:06:18;16.80;;;9.75;;
78484;SDS011;67773;50.806;8.776;2023-04-28T12:08:43;13.60;;;9.57;;
78484;SDS011;67773;50.806;8.776;2023-04-28T12:11:09;16.88;;;10.45;;
78484;SDS011;67773;50.806;8.776;2023-04-28T12:13:39;15.63;;;9.85;;
78484;SDS011;67773;50.806;8.776;2023-04-28T12:16:05;12.52;;;9.13;;
78484;SDS011;67773;50.806;8.776;2023-04-28T12:18:35;14.68;;;10.00;;
78484;SDS011;67773;50.806;8.776;2023-04-28T12:21:01;16.67;;;10.07;;
78484;SDS011;67773;50.806;8.776;2023-04-28T12:23:36;15.88;;;10.48;;
78484;SDS011;67773;50.806;8.776;2023-04-28T12:26:03;16.92;;;10.93;;
78484;SDS011;67773;50.806;8.776;2023-04-28T12:28:35;20.02;;;11.27;;
78484;SDS011;67773;50.806;8.776;2023-04-28T12:31:07;16.63;;;11.00;;
78484;SDS011;67773;50.806;8.776;2023-04-28T12:33:33;18.73;;;11.68;;
78484;SDS011;67773;50.806;8.776;2023-04-28T12:36:02;16.85;;;10.60;;
78484;SDS011;67773;50.806;8.776;2023-04-28T12:38:29;15.35;;;9.75;;
78484;SDS011;67773;50.806;8.776;2023-04-28T12:40:55;18.55;;;10.10;;
78484;SDS011;67773;50.806;8.776;2023-04-28T12:43:21;16.27;;;9.00;;
78484;SDS011;67773;50.806;8.776;2023-04-28T12:45:51;16.00;;;10.63;;
78484;SDS011;67773;50.806;8.776;2023-04-28T12:48:24;13.77;;;8.77;;
78484;SDS011;67773;50.806;8.776;2023-04-28T12:50:49;15.77;;;9.60;;
78484;SDS011;67773;50.806;8.776;2023-04-28T12:53:15;17.30;;;10.25;;
78484;SDS011;67773;50.806;8.776;2023-04-28T12:55:40;13.32;;;9.50;;
78484;SDS011;67773;50.806;8.776;2023-04-28T12:58:06;13.57;;;8.50;;
78484;SDS011;67773;50.806;8.776;2023-04-28T13:00:31;12.77;;;8.90;;
78484;SDS011;67773;50.806;8.776;2023-04-28T13:02:57;13.10;;;8.53;;
78484;SDS011;67773;50.806;8.776;2023-04-28T13:05:22;11.43;;;8.50;;
78484;SDS011;67773;50.806;8.776;2023-04-28T13:07:48;11.80;;;8.80;;
78484;SDS011;67773;50.806;8.776;2023-04-28T13:10:16;13.05;;;9.50;;
78484;SDS011;67773;50.806;8.776;2023-04-28T13:12:42;13.73;;;9.70;;
78484;SDS011;67773;50.806;8.776;2023-04-28T13:15:08;12.30;;;7.90;;
78484;SDS011;67773;50.806;8.776;2023-04-28T13:17:34;12.48;;;8.85;;
78484;SDS011;67773;50.806;8.776;2023-04-28T13:19:59;12.40;;;8.73;;
78484;SDS011;67773;50.806;8.776;2023-04-28T13:22:25;13.10;;;8.77;;
78484;SDS011;67773;50.806;8.776;2023-04-28T13:24:51;14.65;;;9.93;;
78484;SDS011;67773;50.806;8.776;2023-04-28T13:27:16;14.68;;;9.63;;
78484;SDS011;67773;50.806;8.776;2023-04-28T13:29:42;16.27;;;10.52;;
78484;SDS011;67773;50.806;8.776;2023-04-28T13:32:08;13.90;;;9.98;;
78484;SDS011;67773;50.806;8.776;2023-04-28T13:34:33;14.40;;;9.70;;
78484;SDS011;67773;50.806;8.776;2023-04-28T13:36:58;13.63;;;9.47;;
78484;SDS011;67773;50.806;8.776;2023-04-28T13:39:24;13.00;;;9.43;;
78484;SDS011;67773;50.806;8.776;2023-04-28T13:41:49;10.83;;;8.03;;
78484;SDS011;67773;50.806;8.776;2023-04-28T13:44:15;12.32;;;8.23;;
78484;SDS011;67773;50.806;8.776;2023-04-28T13:46:41;10.38;;;7.13;;
78484;SDS011;67773;50.806;8.776;2023-04-28T13:49:08;9.52;;;7.68;;
78484;SDS011;67773;50.806;8.776;2023-04-28T13:51:33;9.00;;;7.88;;
78484;SDS011;67773;50.806;8.776;2023-04-28T13:53:59;11.85;;;8.00;;
78484;SDS011;67773;50.806;8.776;2023-04-28T13:56:25;9.38;;;8.15;;
78484;SDS011;67773;50.806;8.776;2023-04-28T13:58:51;8.93;;;7.85;;
78484;SDS011;67773;50.806;8.776;2023-04-28T14:01:16;11.23;;;8.70;;
78484;SDS011;67773;50.806;8.776;2023-04-28T14:03:41;10.90;;;7.87;;
78484;SDS011;67773;50.806;8.776;2023-04-28T14:06:08;10.00;;;8.00;;
78484;SDS011;67773;50.806;8.776;2023-04-28T14:08:33;11.03;;;7.97;;
78484;SDS011;67773;50.806;8.776;2023-04-28T14:10:59;13.00;;;9.23;;
78484;SDS011;67773;50.806;8.776;2023-04-28T14:13:25;10.65;;;7.80;;
78484;SDS011;67773;50.806;8.776;2023-04-28T14:15:51;10.77;;;7.55;;
78484;SDS011;67773;50.806;8.776;2023-04-28T14:18:17;11.77;;;7.43;;
78484;SDS011;67773;50.806;8.776;2023-04-28T14:20:43;10.98;;;7.53;;
78484;SDS011;67773;50.806;8.776;2023-04-28T14:23:08;8.75;;;7.55;;
78484;SDS011;67773;50.806;8.776;2023-04-28T14:25:34;10.13;;;6.93;;
78484;SDS011;67773;50.806;8.776;2023-04-28T14:28:00;10.93;;;7.30;;
78484;SDS011;67773;50.806;8.776;2023-04-28T14:30:25;9.77;;;6.95;;
78484;SDS011;67773;50.806;8.776;2023-04-28T14:32:51;11.07;;;7.32;;
78484;SDS011;67773;50.806;8.776;2023-04-28T14:35:16;9.07;;;7.50;;
78484;SDS011;67773;50.806;8.776;2023-04-28T14:37:42;10.40;;;7.53;;
78484;SDS011;67773;50.806;8.776;2023-04-28T14:40:07;10.65;;;7.47;;
78484;SDS011;67773;50.806;8.776;2023-04-28T14:42:34;10.48;;;7.13;;
78484;SDS011;67773;50.806;8.776;2023-04-28T14:45:01;8.40;;;6.75;;
78484;SDS011;67773;50.806;8.776;2023-04-28T14:47:28;11.38;;;7.63;;
78484;SDS011;67773;50.806;8.776;2023-04-28T14:49:54;11.73;;;8.40;;